sensor_id;sensor_type;location;lat;lon;timestamp;P1;durP1;ratioP1;P2;durP2;ratioP2
61200;SDS011;47065;52.898;6.992;2023-07-31T00:00:12;4.07;;;1.95;;
61200;SDS011;47065;52.898;6.992;2023-07-31T00:02:38;7.15;;;2.80;;
61200;SDS011;47065;52.898;6.992;2023-07-31T00:05:04;4.47;;;2.22;;
61200;SDS011;47065;52.898;6.992;2023-07-31T00:07:30;4.60;;;2.80;;
61200;SDS011;47065;52.898;6.992;2023-07-31T00:09:57;2.97;;;2.50;;
61200;SDS011;47065;52.898;6.992;2023-07-31T00:12:23;4.00;;;2.50;;
61200;SDS011;47065;52.898;6.992;2023-07-31T00:14:48;4.63;;;2.33;;
61200;SDS011;47065;52.898;6.992;2023-07-31T00:17:14;6.72;;;3.42;;
61200;SDS011;47065;52.898;6.992;2023-07-31T00:19:40;6.68;;;2.85;;
61200;SDS011;47065;52.898;6.992;2023-07-31T00:22:05;5.05;;;3.03;;
61200;SDS011;47065;52.898;6.992;2023-07-31T00:24:31;4.10;;;2.67;;
61200;SDS011;47065;52.898;6.992;2023-07-31T00:26:57;7.32;;;3.10;;
61200;SDS011;47065;52.898;6.992;2023-07-31T00:29:22;6.13;;;3.20;;
61200;SDS011;47065;52.898;6.992;2023-07-31T00:31:48;4.72;;;2.90;;
61200;SDS011;47065;52.898;6.992;2023-07-31T00:34:13;5.70;;;3.38;;
61200;SDS011;47065;52.898;6.992;2023-07-31T00:36:39;5.28;;;2.63;;
61200;SDS011;47065;52.898;6.992;2023-07-31T00:39:05;4.10;;;3.20;;
61200;SDS011;47065;52.898;6.992;2023-07-31T00:41:30;5.60;;;2.63;;
61200;SDS011;47065;52.898;6.992;2023-07-31T00:43:56;3.38;;;2.72;;
61200;SDS011;47065;52.898;6.992;2023-07-31T00:46:22;3.80;;;3.00;;
61200;SDS011;47065;52.898;6.992;2023-07-31T00:48:48;3.92;;;2.38;;
61200;SDS011;47065;52.898;6.992;2023-07-31T00:51:14;3.72;;;2.70;;
61200;SDS011;47065;52.898;6.992;2023-07-31T00:53:41;8.27;;;3.50;;
61200;SDS011;47065;52.898;6.992;2023-07-31T00:56:07;6.25;;;3.40;;
61200;SDS011;47065;52.898;6.992;2023-07-31T00:58:33;2.85;;;2.55;;
61200;SDS011;47065;52.898;6.992;2023-07-31T01:00:59;3.10;;;2.83;;
61200;SDS011;47065;52.898;6.992;2023-07-31T01:03:25;2.80;;;2.35;;
61200;SDS011;47065;52.898;6.992;2023-07-31T01:05:55;4.28;;;2.80;;
61200;SDS011;47065;52.898;6.992;2023-07-31T01:11:14;4.78;;;2.67;;
61200;SDS011;47065;52.898;6.992;2023-07-31T01:13:44;3.78;;;2.33;;
61200;SDS011;47065;52.898;6.992;2023-07-31T01:16:11;8.25;;;3.08;;
61200;SDS011;47065;52.898;6.992;2023-07-31T01:18:37;5.80;;;3.05;;
61200;SDS011;47065;52.898;6.992;2023-07-31T01:21:10;3.40;;;2.45;;
61200;SDS011;47065;52.898;6.992;2023-07-31T01:26:58;5.15;;;3.05;;
61200;SDS011;47065;52.898;6.992;2023-07-31T01:29:37;2.75;;;2.50;;
61200;SDS011;47065;52.898;6.992;2023-07-31T01:32:08;3.60;;;2.50;;
61200;SDS011;47065;52.898;6.992;2023-07-31T01:34:35;4.28;;;2.20;;
61200;SDS011;47065;52.898;6.992;2023-07-31T01:37:02;4.53;;;2.53;;
61200;SDS011;47065;52.898;6.992;2023-07-31T01:39:28;4.50;;;2.30;;
61200;SDS011;47065;52.898;6.992;2023-07-31T01:41:54;3.50;;;2.28;;
61200;SDS011;47065;52.898;6.992;2023-07-31T01:44:19;5.85;;;2.47;;
61200;SDS011;47065;52.898;6.992;2023-07-31T01:46:45;8.40;;;2.58;;
61200;SDS011;47065;52.898;6.992;2023-07-31T01:49:11;3.90;;;2.22;;
61200;SDS011;47065;52.898;6.992;2023-07-31T01:51:36;5.45;;;2.45;;
61200;SDS011;47065;52.898;6.992;2023-07-31T01:54:02;2.78;;;1.95;;
61200;SDS011;47065;52.898;6.992;2023-07-31T01:56:28;5.22;;;1.98;;
61200;SDS011;47065;52.898;6.992;2023-07-31T01:58:54;7.80;;;2.70;;
61200;SDS011;47065;52.898;6.992;2023-07-31T02:01:19;2.70;;;2.22;;
61200;SDS011;47065;52.898;6.992;2023-07-31T02:03:45;2.33;;;1.35;;
61200;SDS011;47065;52.898;6.992;2023-07-31T02:06:11;3.63;;;1.73;;
61200;SDS011;47065;52.898;6.992;2023-07-31T02:08:36;1.42;;;1.33;;
61200;SDS011;47065;52.898;6.992;2023-07-31T02:11:02;3.67;;;1.38;;
61200;SDS011;47065;52.898;6.992;2023-07-31T02:13:28;3.10;;;1.65;;
61200;SDS011;47065;52.898;6.992;2023-07-31T02:15:54;1.50;;;1.35;;
61200;SDS011;47065;52.898;6.992;2023-07-31T02:18:19;2.70;;;1.20;;
61200;SDS011;47065;52.898;6.992;2023-07-31T02:20:51;4.00;;;1.70;;
61200;SDS011;47065;52.898;6.992;2023-07-31T02:23:17;2.72;;;1.65;;
61200;SDS011;47065;52.898;6.992;2023-07-31T02:25:44;4.35;;;1.50;;
61200;SDS011;47065;52.898;6.992;2023-07-31T02:28:10;2.10;;;1.35;;
61200;SDS011;47065;52.898;6.992;2023-07-31T02:30:35;1.60;;;1.33;;
61200;SDS011;47065;52.898;6.992;2023-07-31T02:33:01;3.22;;;1.45;;
61200;SDS011;47065;52.898;6.992;2023-07-31T02:35:27;3.50;;;1.67;;
61200;SDS011;47065;52.898;6.992;2023-07-31T02:37:53;3.55;;;1.50;;
61200;SDS011;47065;52.898;6.992;2023-07-31T02:40:18;3.65;;;1.90;;
61200;SDS011;47065;52.898;6.992;2023-07-31T02:42:44;3.47;;;1.85;;
61200;SDS011;47065;52.898;6.992;2023-07-31T02:45:10;2.28;;;1.83;;
61200;SDS011;47065;52.898;6.992;2023-07-31T02:47:35;2.42;;;1.50;;
61200;SDS011;47065;52.898;6.992;2023-07-31T02:50:04;2.10;;;1.30;;
61200;SDS011;47065;52.898;6.992;2023-07-31T02:52:30;2.33;;;1.88;;
61200;SDS011;47065;52.898;6.992;2023-07-31T02:54:56;4.75;;;1.77;;
61200;SDS011;47065;52.898;6.992;2023-07-31T02:57:22;2.17;;;1.95;;
61200;SDS011;47065;52.898;6.992;2023-07-31T02:59:48;4.65;;;1.80;;
61200;SDS011;47065;52.898;6.992;2023-07-31T03:02:13;2.08;;;1.70;;
61200;SDS011;47065;52.898;6.992;2023-07-31T03:04:39;2.70;;;1.60;;
61200;SDS011;47065;52.898;6.992;2023-07-31T03:07:05;1.92;;;1.70;;
61200;SDS011;47065;52.898;6.992;2023-07-31T03:09:31;1.92;;;1.58;;
61200;SDS011;47065;52.898;6.992;2023-07-31T03:11:56;3.53;;;1.63;;
61200;SDS011;47065;52.898;6.992;2023-07-31T03:14:22;1.95;;;1.65;;
61200;SDS011;47065;52.898;6.992;2023-07-31T03:16:48;1.75;;;1.65;;
61200;SDS011;47065;52.898;6.992;2023-07-31T03:19:14;2.75;;;1.70;;
61200;SDS011;47065;52.898;6.992;2023-07-31T03:21:40;4.10;;;2.10;;
61200;SDS011;47065;52.898;6.992;2023-07-31T03:24:05;3.28;;;1.75;;
61200;SDS011;47065;52.898;6.992;2023-07-31T03:26:31;1.88;;;1.58;;
61200;SDS011;47065;52.898;6.992;2023-07-31T03:28:57;2.55;;;2.00;;
61200;SDS011;47065;52.898;6.992;2023-07-31T03:31:23;2.08;;;1.80;;
61200;SDS011;47065;52.898;6.992;2023-07-31T03:33:48;3.50;;;2.05;;
61200;SDS011;47065;52.898;6.992;2023-07-31T03:36:14;4.38;;;3.28;;
61200;SDS011;47065;52.898;6.992;2023-07-31T03:38:40;4.75;;;2.90;;
61200;SDS011;47065;52.898;6.992;2023-07-31T03:41:06;4.88;;;2.80;;
61200;SDS011;47065;52.898;6.992;2023-07-31T03:43:32;3.03;;;2.65;;
61200;SDS011;47065;52.898;6.992;2023-07-31T03:46:00;3.45;;;2.50;;
61200;SDS011;47065;52.898;6.992;2023-07-31T03:48:26;4.50;;;2.92;;
61200;SDS011;47065;52.898;6.992;2023-07-31T03:50:52;5.78;;;3.20;;
61200;SDS011;47065;52.898;6.992;2023-07-31T03:53:18;3.50;;;3.10;;
61200;SDS011;47065;52.898;6.992;2023-07-31T03:55:43;3.88;;;3.03;;
61200;SDS011;47065;52.898;6.992;2023-07-31T03:58:09;6.38;;;3.65;;
61200;SDS011;47065;52.898;6.992;2023-07-31T04:00:35;4.15;;;3.30;;
61200;SDS011;47065;52.898;6.992;2023-07-31T04:03:00;4.00;;;3.60;;
61200;SDS011;47065;52.898;6.992;2023-07-31T04:05:26;4.72;;;3.45;;
61200;SDS011;47065;52.898;6.992;2023-07-31T04:07:51;3.50;;;2.65;;
61200;SDS011;47065;52.898;6.992;2023-07-31T04:10:17;3.33;;;2.20;;
61200;SDS011;47065;52.898;6.992;2023-07-31T04:12:43;3.20;;;2.10;;
61200;SDS011;47065;52.898;6.992;2023-07-31T04:15:08;2.92;;;1.77;;
61200;SDS011;47065;52.898;6.992;2023-07-31T04:17:34;2.03;;;1.70;;
61200;SDS011;47065;52.898;6.992;2023-07-31T04:20:00;3.63;;;1.70;;
61200;SDS011;47065;52.898;6.992;2023-07-31T04:22:26;3.22;;;2.05;;
61200;SDS011;47065;52.898;6.992;2023-07-31T04:24:52;2.42;;;2.17;;
61200;SDS011;47065;52.898;6.992;2023-07-31T04:27:17;4.70;;;2.42;;
61200;SDS011;47065;52.898;6.992;2023-07-31T04:29:43;4.30;;;2.20;;
61200;SDS011;47065;52.898;6.992;2023-07-31T04:32:11;2.15;;;1.90;;
61200;SDS011;47065;52.898;6.992;2023-07-31T04:34:36;4.68;;;2.40;;
61200;SDS011;47065;52.898;6.992;2023-07-31T04:37:02;7.95;;;2.80;;
61200;SDS011;47065;52.898;6.992;2023-07-31T04:39:28;11.63;;;3.08;;
61200;SDS011;47065;52.898;6.992;2023-07-31T04:41:54;2.30;;;1.77;;
61200;SDS011;47065;52.898;6.992;2023-07-31T04:44:19;6.75;;;2.08;;
61200;SDS011;47065;52.898;6.992;2023-07-31T04:46:45;3.08;;;2.05;;
61200;SDS011;47065;52.898;6.992;2023-07-31T04:49:11;2.97;;;1.70;;
61200;SDS011;47065;52.898;6.992;2023-07-31T04:51:36;6.05;;;1.60;;
61200;SDS011;47065;52.898;6.992;2023-07-31T04:54:02;4.82;;;1.98;;
61200;SDS011;47065;52.898;6.992;2023-07-31T04:56:28;2.40;;;1.50;;
61200;SDS011;47065;52.898;6.992;2023-07-31T04:58:54;2.45;;;1.40;;
61200;SDS011;47065;52.898;6.992;2023-07-31T05:01:20;1.60;;;1.17;;
61200;SDS011;47065;52.898;6.992;2023-07-31T05:03:45;2.42;;;0.98;;
61200;SDS011;47065;52.898;6.992;2023-07-31T05:06:11;1.38;;;1.27;;
61200;SDS011;47065;52.898;6.992;2023-07-31T05:08:38;2.20;;;1.15;;
61200;SDS011;47065;52.898;6.992;2023-07-31T05:11:04;3.45;;;1.50;;
61200;SDS011;47065;52.898;6.992;2023-07-31T05:13:30;3.83;;;2.03;;
61200;SDS011;47065;52.898;6.992;2023-07-31T05:15:55;6.50;;;2.15;;
61200;SDS011;47065;52.898;6.992;2023-07-31T05:18:21;4.40;;;2.50;;
61200;SDS011;47065;52.898;6.992;2023-07-31T05:20:46;7.30;;;2.33;;
61200;SDS011;47065;52.898;6.992;2023-07-31T05:23:12;7.13;;;2.97;;
61200;SDS011;47065;52.898;6.992;2023-07-31T05:25:38;7.43;;;2.80;;
61200;SDS011;47065;52.898;6.992;2023-07-31T05:28:03;6.05;;;3.08;;
61200;SDS011;47065;52.898;6.992;2023-07-31T05:30:29;8.13;;;3.10;;
61200;SDS011;47065;52.898;6.992;2023-07-31T05:32:56;12.38;;;4.18;;
61200;SDS011;47065;52.898;6.992;2023-07-31T05:35:21;8.98;;;4.40;;
61200;SDS011;47065;52.898;6.992;2023-07-31T05:37:47;11.48;;;5.15;;
61200;SDS011;47065;52.898;6.992;2023-07-31T05:40:13;19.65;;;6.38;;
61200;SDS011;47065;52.898;6.992;2023-07-31T05:42:40;21.58;;;6.88;;
61200;SDS011;47065;52.898;6.992;2023-07-31T05:45:06;19.05;;;7.40;;
61200;SDS011;47065;52.898;6.992;2023-07-31T05:47:32;23.02;;;7.35;;
61200;SDS011;47065;52.898;6.992;2023-07-31T05:49:58;23.60;;;8.88;;
61200;SDS011;47065;52.898;6.992;2023-07-31T05:52:24;33.03;;;9.93;;
61200;SDS011;47065;52.898;6.992;2023-07-31T05:54:49;28.67;;;10.07;;
61200;SDS011;47065;52.898;6.992;2023-07-31T05:57:16;31.30;;;9.88;;
61200;SDS011;47065;52.898;6.992;2023-07-31T05:59:42;32.13;;;10.73;;
61200;SDS011;47065;52.898;6.992;2023-07-31T06:02:08;29.30;;;9.90;;
61200;SDS011;47065;52.898;6.992;2023-07-31T06:04:33;38.47;;;12.27;;
61200;SDS011;47065;52.898;6.992;2023-07-31T06:06:59;46.53;;;13.63;;
61200;SDS011;47065;52.898;6.992;2023-07-31T06:09:25;41.55;;;13.35;;
61200;SDS011;47065;52.898;6.992;2023-07-31T06:11:52;43.67;;;13.07;;
61200;SDS011;47065;52.898;6.992;2023-07-31T06:14:17;44.28;;;14.40;;
61200;SDS011;47065;52.898;6.992;2023-07-31T06:16:46;33.13;;;11.77;;
61200;SDS011;47065;52.898;6.992;2023-07-31T06:19:12;40.53;;;13.68;;
61200;SDS011;47065;52.898;6.992;2023-07-31T06:21:37;44.40;;;14.30;;
61200;SDS011;47065;52.898;6.992;2023-07-31T06:24:04;55.67;;;16.13;;
61200;SDS011;47065;52.898;6.992;2023-07-31T06:26:30;42.38;;;14.65;;
61200;SDS011;47065;52.898;6.992;2023-07-31T06:28:56;50.50;;;17.35;;
61200;SDS011;47065;52.898;6.992;2023-07-31T06:31:22;61.33;;;17.95;;
61200;SDS011;47065;52.898;6.992;2023-07-31T06:33:51;56.70;;;17.67;;
61200;SDS011;47065;52.898;6.992;2023-07-31T06:36:17;45.40;;;15.57;;
61200;SDS011;47065;52.898;6.992;2023-07-31T06:38:43;42.88;;;15.27;;
61200;SDS011;47065;52.898;6.992;2023-07-31T06:41:09;42.45;;;16.65;;
61200;SDS011;47065;52.898;6.992;2023-07-31T06:43:35;51.28;;;17.10;;
61200;SDS011;47065;52.898;6.992;2023-07-31T06:46:07;37.53;;;16.00;;
61200;SDS011;47065;52.898;6.992;2023-07-31T06:48:34;42.88;;;16.52;;
61200;SDS011;47065;52.898;6.992;2023-07-31T06:51:02;44.63;;;15.90;;
61200;SDS011;47065;52.898;6.992;2023-07-31T06:53:28;39.80;;;15.02;;
61200;SDS011;47065;52.898;6.992;2023-07-31T06:55:54;43.97;;;15.48;;
61200;SDS011;47065;52.898;6.992;2023-07-31T06:58:20;39.40;;;15.23;;
61200;SDS011;47065;52.898;6.992;2023-07-31T07:00:45;35.90;;;15.13;;
61200;SDS011;47065;52.898;6.992;2023-07-31T07:03:11;38.75;;;14.65;;
61200;SDS011;47065;52.898;6.992;2023-07-31T07:05:39;40.10;;;15.00;;
61200;SDS011;47065;52.898;6.992;2023-07-31T07:08:05;33.58;;;14.63;;
61200;SDS011;47065;52.898;6.992;2023-07-31T07:10:31;46.38;;;15.65;;
61200;SDS011;47065;52.898;6.992;2023-07-31T07:12:56;34.50;;;14.30;;
61200;SDS011;47065;52.898;6.992;2023-07-31T07:15:22;39.17;;;15.85;;
61200;SDS011;47065;52.898;6.992;2023-07-31T07:17:47;29.83;;;14.70;;
61200;SDS011;47065;52.898;6.992;2023-07-31T07:20:13;29.33;;;14.18;;
61200;SDS011;47065;52.898;6.992;2023-07-31T07:22:39;33.15;;;13.82;;
61200;SDS011;47065;52.898;6.992;2023-07-31T07:25:06;30.25;;;14.05;;
61200;SDS011;47065;52.898;6.992;2023-07-31T07:27:32;35.88;;;15.23;;
61200;SDS011;47065;52.898;6.992;2023-07-31T07:29:58;33.70;;;13.25;;
61200;SDS011;47065;52.898;6.992;2023-07-31T07:32:24;36.30;;;13.35;;
61200;SDS011;47065;52.898;6.992;2023-07-31T07:34:49;36.60;;;12.32;;
61200;SDS011;47065;52.898;6.992;2023-07-31T07:37:15;24.70;;;10.32;;
61200;SDS011;47065;52.898;6.992;2023-07-31T07:39:41;26.48;;;11.20;;
61200;SDS011;47065;52.898;6.992;2023-07-31T07:42:07;23.88;;;9.65;;
61200;SDS011;47065;52.898;6.992;2023-07-31T07:44:32;21.15;;;8.93;;
61200;SDS011;47065;52.898;6.992;2023-07-31T07:46:58;22.15;;;8.23;;
61200;SDS011;47065;52.898;6.992;2023-07-31T07:49:24;17.13;;;7.47;;
61200;SDS011;47065;52.898;6.992;2023-07-31T07:51:49;15.57;;;6.78;;
61200;SDS011;47065;52.898;6.992;2023-07-31T07:54:15;16.67;;;7.82;;
61200;SDS011;47065;52.898;6.992;2023-07-31T07:56:46;18.23;;;6.78;;
61200;SDS011;47065;52.898;6.992;2023-07-31T07:59:11;12.50;;;6.68;;
61200;SDS011;47065;52.898;6.992;2023-07-31T08:01:37;19.33;;;7.55;;
61200;SDS011;47065;52.898;6.992;2023-07-31T08:04:03;17.17;;;6.95;;
61200;SDS011;47065;52.898;6.992;2023-07-31T08:06:28;16.38;;;8.48;;
61200;SDS011;47065;52.898;6.992;2023-07-31T08:08:55;18.63;;;7.22;;
61200;SDS011;47065;52.898;6.992;2023-07-31T08:11:21;18.10;;;7.22;;
61200;SDS011;47065;52.898;6.992;2023-07-31T08:13:48;16.02;;;6.97;;
61200;SDS011;47065;52.898;6.992;2023-07-31T08:16:14;17.17;;;8.20;;
61200;SDS011;47065;52.898;6.992;2023-07-31T08:18:40;11.82;;;7.05;;
61200;SDS011;47065;52.898;6.992;2023-07-31T08:21:07;16.00;;;6.75;;
61200;SDS011;47065;52.898;6.992;2023-07-31T08:23:33;12.65;;;6.55;;
61200;SDS011;47065;52.898;6.992;2023-07-31T08:25:59;12.98;;;6.45;;
61200;SDS011;47065;52.898;6.992;2023-07-31T08:28:24;20.05;;;7.88;;
61200;SDS011;47065;52.898;6.992;2023-07-31T08:30:50;11.68;;;7.40;;
61200;SDS011;47065;52.898;6.992;2023-07-31T08:33:16;15.85;;;7.30;;
61200;SDS011;47065;52.898;6.992;2023-07-31T08:35:41;12.80;;;6.53;;
61200;SDS011;47065;52.898;6.992;2023-07-31T08:38:07;12.05;;;6.88;;
61200;SDS011;47065;52.898;6.992;2023-07-31T08:40:35;16.05;;;6.45;;
61200;SDS011;47065;52.898;6.992;2023-07-31T08:43:03;16.08;;;5.90;;
61200;SDS011;47065;52.898;6.992;2023-07-31T08:45:29;11.90;;;6.15;;
61200;SDS011;47065;52.898;6.992;2023-07-31T08:47:56;9.02;;;5.85;;
61200;SDS011;47065;52.898;6.992;2023-07-31T08:50:22;8.35;;;5.32;;
61200;SDS011;47065;52.898;6.992;2023-07-31T08:52:49;8.23;;;5.03;;
61200;SDS011;47065;52.898;6.992;2023-07-31T08:55:15;9.77;;;4.72;;
61200;SDS011;47065;52.898;6.992;2023-07-31T08:57:41;7.65;;;4.25;;
61200;SDS011;47065;52.898;6.992;2023-07-31T09:00:08;6.55;;;4.43;;
61200;SDS011;47065;52.898;6.992;2023-07-31T09:02:41;6.43;;;4.97;;
61200;SDS011;47065;52.898;6.992;2023-07-31T09:05:11;4.43;;;3.95;;
61200;SDS011;47065;52.898;6.992;2023-07-31T09:07:38;6.05;;;4.30;;
61200;SDS011;47065;52.898;6.992;2023-07-31T09:10:05;6.72;;;4.28;;
61200;SDS011;47065;52.898;6.992;2023-07-31T09:12:32;7.68;;;4.95;;
61200;SDS011;47065;52.898;6.992;2023-07-31T09:14:58;7.72;;;4.68;;
61200;SDS011;47065;52.898;6.992;2023-07-31T09:17:30;6.57;;;4.78;;
61200;SDS011;47065;52.898;6.992;2023-07-31T09:19:57;4.57;;;4.03;;
61200;SDS011;47065;52.898;6.992;2023-07-31T09:22:33;5.57;;;3.92;;
61200;SDS011;47065;52.898;6.992;2023-07-31T09:30:19;4.15;;;2.97;;
61200;SDS011;47065;52.898;6.992;2023-07-31T09:32:46;3.85;;;3.05;;
61200;SDS011;47065;52.898;6.992;2023-07-31T09:35:14;3.80;;;2.45;;
61200;SDS011;47065;52.898;6.992;2023-07-31T09:37:44;4.30;;;3.08;;
61200;SDS011;47065;52.898;6.992;2023-07-31T09:40:35;3.60;;;2.25;;
61200;SDS011;47065;52.898;6.992;2023-07-31T09:43:03;2.90;;;2.17;;
61200;SDS011;47065;52.898;6.992;2023-07-31T09:45:33;2.50;;;2.10;;
61200;SDS011;47065;52.898;6.992;2023-07-31T09:48:02;1.88;;;1.75;;
61200;SDS011;47065;52.898;6.992;2023-07-31T09:50:31;4.25;;;2.13;;
61200;SDS011;47065;52.898;6.992;2023-07-31T09:52:57;2.58;;;1.35;;
61200;SDS011;47065;52.898;6.992;2023-07-31T09:55:23;2.88;;;1.55;;
61200;SDS011;47065;52.898;6.992;2023-07-31T09:57:50;1.65;;;1.20;;
61200;SDS011;47065;52.898;6.992;2023-07-31T10:00:16;3.60;;;1.35;;
61200;SDS011;47065;52.898;6.992;2023-07-31T10:02:46;1.40;;;1.13;;
61200;SDS011;47065;52.898;6.992;2023-07-31T10:05:15;1.58;;;1.30;;
61200;SDS011;47065;52.898;6.992;2023-07-31T10:07:42;1.90;;;0.90;;
61200;SDS011;47065;52.898;6.992;2023-07-31T10:10:13;1.52;;;1.40;;
61200;SDS011;47065;52.898;6.992;2023-07-31T10:12:41;3.22;;;1.20;;
61200;SDS011;47065;52.898;6.992;2023-07-31T10:15:09;1.73;;;1.40;;
61200;SDS011;47065;52.898;6.992;2023-07-31T10:17:35;1.20;;;1.10;;
61200;SDS011;47065;52.898;6.992;2023-07-31T10:20:02;0.98;;;0.93;;
61200;SDS011;47065;52.898;6.992;2023-07-31T10:22:31;1.25;;;0.88;;
61200;SDS011;47065;52.898;6.992;2023-07-31T10:24:58;1.10;;;1.10;;
61200;SDS011;47065;52.898;6.992;2023-07-31T10:27:24;3.53;;;1.20;;
61200;SDS011;47065;52.898;6.992;2023-07-31T10:29:50;1.20;;;1.10;;
61200;SDS011;47065;52.898;6.992;2023-07-31T10:32:19;1.52;;;0.93;;
61200;SDS011;47065;52.898;6.992;2023-07-31T10:34:45;1.63;;;1.20;;
61200;SDS011;47065;52.898;6.992;2023-07-31T10:39:57;1.30;;;1.20;;
61200;SDS011;47065;52.898;6.992;2023-07-31T10:42:32;1.42;;;1.33;;
61200;SDS011;47065;52.898;6.992;2023-07-31T10:45:06;2.45;;;2.10;;
61200;SDS011;47065;52.898;6.992;2023-07-31T10:47:39;3.40;;;1.58;;
61200;SDS011;47065;52.898;6.992;2023-07-31T10:50:18;2.10;;;2.00;;
61200;SDS011;47065;52.898;6.992;2023-07-31T10:52:52;3.67;;;2.03;;
61200;SDS011;47065;52.898;6.992;2023-07-31T10:55:31;2.75;;;2.55;;
61200;SDS011;47065;52.898;6.992;2023-07-31T10:58:06;2.78;;;2.25;;
61200;SDS011;47065;52.898;6.992;2023-07-31T11:00:39;4.97;;;3.20;;
61200;SDS011;47065;52.898;6.992;2023-07-31T11:03:09;3.03;;;2.53;;
61200;SDS011;47065;52.898;6.992;2023-07-31T11:05:49;5.13;;;3.00;;
61200;SDS011;47065;52.898;6.992;2023-07-31T11:08:19;3.00;;;2.80;;
61200;SDS011;47065;52.898;6.992;2023-07-31T11:10:48;2.95;;;2.65;;
61200;SDS011;47065;52.898;6.992;2023-07-31T11:13:15;2.97;;;2.78;;
61200;SDS011;47065;52.898;6.992;2023-07-31T11:15:41;4.95;;;3.28;;
61200;SDS011;47065;52.898;6.992;2023-07-31T11:18:07;3.60;;;3.30;;
61200;SDS011;47065;52.898;6.992;2023-07-31T11:20:33;2.55;;;2.35;;
61200;SDS011;47065;52.898;6.992;2023-07-31T11:23:10;4.45;;;3.35;;
61200;SDS011;47065;52.898;6.992;2023-07-31T11:25:37;2.45;;;2.25;;
61200;SDS011;47065;52.898;6.992;2023-07-31T11:28:05;4.22;;;2.20;;
61200;SDS011;47065;52.898;6.992;2023-07-31T11:30:32;2.40;;;2.20;;
61200;SDS011;47065;52.898;6.992;2023-07-31T11:32:59;2.95;;;2.00;;
61200;SDS011;47065;52.898;6.992;2023-07-31T11:35:29;1.95;;;1.85;;
61200;SDS011;47065;52.898;6.992;2023-07-31T11:37:55;2.10;;;1.90;;
61200;SDS011;47065;52.898;6.992;2023-07-31T11:40:21;1.75;;;1.60;;
61200;SDS011;47065;52.898;6.992;2023-07-31T11:42:47;1.92;;;1.50;;
61200;SDS011;47065;52.898;6.992;2023-07-31T11:45:12;2.13;;;1.85;;
61200;SDS011;47065;52.898;6.992;2023-07-31T11:47:38;2.00;;;1.90;;
61200;SDS011;47065;52.898;6.992;2023-07-31T11:50:04;2.42;;;1.92;;
61200;SDS011;47065;52.898;6.992;2023-07-31T11:52:34;1.95;;;1.75;;
61200;SDS011;47065;52.898;6.992;2023-07-31T11:55:04;1.75;;;1.65;;
61200;SDS011;47065;52.898;6.992;2023-07-31T11:57:34;1.88;;;1.77;;
61200;SDS011;47065;52.898;6.992;2023-07-31T12:00:01;1.67;;;1.58;;
61200;SDS011;47065;52.898;6.992;2023-07-31T12:02:28;1.50;;;1.40;;
61200;SDS011;47065;52.898;6.992;2023-07-31T12:04:54;2.67;;;1.42;;
61200;SDS011;47065;52.898;6.992;2023-07-31T12:07:19;1.40;;;1.30;;
61200;SDS011;47065;52.898;6.992;2023-07-31T12:09:52;2.35;;;1.10;;
61200;SDS011;47065;52.898;6.992;2023-07-31T12:12:21;1.45;;;1.30;;
61200;SDS011;47065;52.898;6.992;2023-07-31T12:14:47;1.40;;;1.25;;
61200;SDS011;47065;52.898;6.992;2023-07-31T12:17:13;1.55;;;1.02;;
61200;SDS011;47065;52.898;6.992;2023-07-31T12:19:40;1.02;;;1.02;;
61200;SDS011;47065;52.898;6.992;2023-07-31T12:22:12;1.17;;;1.08;;
61200;SDS011;47065;52.898;6.992;2023-07-31T12:24:43;0.80;;;0.80;;
61200;SDS011;47065;52.898;6.992;2023-07-31T12:27:13;2.65;;;1.35;;
61200;SDS011;47065;52.898;6.992;2023-07-31T12:29:40;1.65;;;1.55;;
61200;SDS011;47065;52.898;6.992;2023-07-31T12:32:24;2.47;;;1.80;;
61200;SDS011;47065;52.898;6.992;2023-07-31T12:34:50;3.03;;;2.00;;
61200;SDS011;47065;52.898;6.992;2023-07-31T12:37:16;1.77;;;1.48;;
61200;SDS011;47065;52.898;6.992;2023-07-31T12:39:42;1.45;;;1.23;;
61200;SDS011;47065;52.898;6.992;2023-07-31T12:42:08;1.70;;;1.60;;
61200;SDS011;47065;52.898;6.992;2023-07-31T12:44:34;3.20;;;1.30;;
61200;SDS011;47065;52.898;6.992;2023-07-31T12:46:59;0.80;;;0.80;;
61200;SDS011;47065;52.898;6.992;2023-07-31T12:49:25;1.52;;;0.80;;
61200;SDS011;47065;52.898;6.992;2023-07-31T12:51:52;0.70;;;0.70;;
61200;SDS011;47065;52.898;6.992;2023-07-31T12:54:19;1.88;;;0.57;;
61200;SDS011;47065;52.898;6.992;2023-07-31T12:56:44;2.92;;;1.10;;
61200;SDS011;47065;52.898;6.992;2023-07-31T12:59:10;1.55;;;0.90;;
61200;SDS011;47065;52.898;6.992;2023-07-31T13:01:36;1.13;;;0.98;;
61200;SDS011;47065;52.898;6.992;2023-07-31T13:04:01;1.25;;;1.13;;
61200;SDS011;47065;52.898;6.992;2023-07-31T13:06:27;2.72;;;1.50;;
61200;SDS011;47065;52.898;6.992;2023-07-31T13:08:53;2.47;;;1.67;;
61200;SDS011;47065;52.898;6.992;2023-07-31T13:11:18;4.60;;;1.60;;
61200;SDS011;47065;52.898;6.992;2023-07-31T13:13:44;2.58;;;1.60;;
61200;SDS011;47065;52.898;6.992;2023-07-31T13:16:09;3.38;;;2.00;;
61200;SDS011;47065;52.898;6.992;2023-07-31T13:18:35;3.78;;;1.92;;
61200;SDS011;47065;52.898;6.992;2023-07-31T13:21:01;3.72;;;1.90;;
61200;SDS011;47065;52.898;6.992;2023-07-31T13:23:27;2.65;;;2.20;;
61200;SDS011;47065;52.898;6.992;2023-07-31T13:25:52;2.75;;;1.50;;
61200;SDS011;47065;52.898;6.992;2023-07-31T13:28:18;10.25;;;2.25;;
61200;SDS011;47065;52.898;6.992;2023-07-31T13:30:44;3.20;;;1.50;;
61200;SDS011;47065;52.898;6.992;2023-07-31T13:33:11;7.55;;;3.50;;
61200;SDS011;47065;52.898;6.992;2023-07-31T13:35:36;4.78;;;1.90;;
61200;SDS011;47065;52.898;6.992;2023-07-31T13:38:02;4.85;;;1.80;;
61200;SDS011;47065;52.898;6.992;2023-07-31T13:40:27;3.63;;;1.75;;
61200;SDS011;47065;52.898;6.992;2023-07-31T13:42:53;9.98;;;2.50;;
61200;SDS011;47065;52.898;6.992;2023-07-31T13:45:19;3.72;;;2.50;;
61200;SDS011;47065;52.898;6.992;2023-07-31T13:47:45;5.60;;;2.15;;
61200;SDS011;47065;52.898;6.992;2023-07-31T13:50:10;6.30;;;2.22;;
61200;SDS011;47065;52.898;6.992;2023-07-31T13:52:36;4.00;;;2.47;;
61200;SDS011;47065;52.898;6.992;2023-07-31T13:55:02;3.35;;;1.77;;
61200;SDS011;47065;52.898;6.992;2023-07-31T13:57:27;7.32;;;3.00;;
61200;SDS011;47065;52.898;6.992;2023-07-31T13:59:53;7.57;;;2.70;;
61200;SDS011;47065;52.898;6.992;2023-07-31T14:02:19;6.25;;;3.83;;
61200;SDS011;47065;52.898;6.992;2023-07-31T14:04:44;8.88;;;4.13;;
61200;SDS011;47065;52.898;6.992;2023-07-31T14:07:10;5.28;;;3.60;;
61200;SDS011;47065;52.898;6.992;2023-07-31T14:09:36;5.53;;;4.20;;
61200;SDS011;47065;52.898;6.992;2023-07-31T14:12:01;5.05;;;3.63;;
61200;SDS011;47065;52.898;6.992;2023-07-31T14:14:27;6.68;;;3.50;;
61200;SDS011;47065;52.898;6.992;2023-07-31T14:16:53;7.57;;;3.95;;
61200;SDS011;47065;52.898;6.992;2023-07-31T14:19:18;7.38;;;3.15;;
61200;SDS011;47065;52.898;6.992;2023-07-31T14:21:45;6.30;;;2.92;;
61200;SDS011;47065;52.898;6.992;2023-07-31T14:24:11;3.65;;;2.88;;
61200;SDS011;47065;52.898;6.992;2023-07-31T14:26:36;4.57;;;2.80;;
61200;SDS011;47065;52.898;6.992;2023-07-31T14:29:02;6.60;;;3.50;;
61200;SDS011;47065;52.898;6.992;2023-07-31T14:31:27;4.80;;;3.25;;
61200;SDS011;47065;52.898;6.992;2023-07-31T14:33:53;9.25;;;3.35;;
61200;SDS011;47065;52.898;6.992;2023-07-31T14:36:19;5.90;;;3.00;;
61200;SDS011;47065;52.898;6.992;2023-07-31T14:38:44;5.50;;;2.58;;
61200;SDS011;47065;52.898;6.992;2023-07-31T14:41:10;4.00;;;3.00;;
61200;SDS011;47065;52.898;6.992;2023-07-31T14:43:36;7.97;;;2.75;;
61200;SDS011;47065;52.898;6.992;2023-07-31T14:46:01;7.63;;;3.00;;
61200;SDS011;47065;52.898;6.992;2023-07-31T14:48:27;7.20;;;3.13;;
61200;SDS011;47065;52.898;6.992;2023-07-31T14:50:54;3.97;;;2.90;;
61200;SDS011;47065;52.898;6.992;2023-07-31T14:53:20;5.00;;;3.22;;